Tropical Cyclones
[Index]
Main Index Home Page Stock Weather Photos Extreme Storms Discussion Storm News and Storm Chasing Reports Tropical Cyclones / Hurricanes / Typhoons Weather Data and Links Wild Fires / Bushfires Weather Observation Techniques Weather Picture Catalogue Tornado Pictures and Reports Stock Video Footage and DVDs for sale
Season 2000-2001 Tropical Cyclone ALISTAIR Track Map
Season 2000-2001 Summaries: [BoM-AU] [JTWC-AU] [JTWC-SIO] [JTWC-SPAC] [JTWC-SH]
<<- Previous TC | BoM 2000-2001 Season | Next TC ->>

click for intensity scale information  Lat/long Grid: Show Hide

 Date Labels: Show Hide

Bureau of Meteorology Tropical Cyclone Data

Name: ALISTAIR
Number: 850 / 200001_08

15 Apr 2001 12:00 UTC to 24 Apr 2001 01:00 UTC

    date/time    lat    long    hPa   cat  kts
2001-04-15 12    7.5   137.0   1008         20          
2001-04-16 00    8.2   135.5   1003         25          
2001-04-16 06    9.0   134.0   1000         25          
2001-04-16 12    9.5   133.5   1000         30          
2001-04-16 18   10.0   132.8    995    1    35          
2001-04-16 19   10.2   132.8    995    1    35          
2001-04-16 22   10.2   132.3    995    1    35          
2001-04-17 01   10.4   131.4    990    1    40          
2001-04-17 04   10.4   131.0    990    1    40          
2001-04-17 07   10.8   130.5    990    1    40          
2001-04-17 10   11.2   130.0    990    1    40          
2001-04-17 16   11.7   128.7    990    1    40          
2001-04-17 22   12.5   127.2    985    2    50          
2001-04-18 00   12.7   126.9    985    2    50          
2001-04-18 05   13.6   126.0    985    2    50          
2001-04-18 10   14.3   124.5    980    2    55          
2001-04-18 16   14.9   123.3    975    2    60          
2001-04-18 22   15.5   122.4    975    2    60          
2001-04-19 04   16.4   121.1    975    2    60          
2001-04-19 10   17.2   120.0    980    2    55          
2001-04-19 16   17.2   118.4    980    2    55          
2001-04-19 22   17.4   117.6    985    2    50          
2001-04-20 01   17.9   116.0    985    2    50          
2001-04-20 04   18.1   115.3    990    1    40          
2001-04-20 07   18.4   114.6    990    1    40          
2001-04-20 10   18.8   113.9    990    1    40          
2001-04-20 13   19.3   113.3    990    1    40          
2001-04-20 16   19.6   112.7    990    1    40          
2001-04-20 22   19.9   112.1    990    1    40          
2001-04-21 01   20.1   111.6    990    1    40          
2001-04-21 04   20.4   111.1    990    1    40          
2001-04-21 07   20.8   110.6    990    1    40          
2001-04-21 10   20.9   110.3    990    1    40          
2001-04-21 13   21.1   110.1    990    1    40          
2001-04-21 16   21.2   109.9    990    1    40          
2001-04-21 19   21.4   109.6    990    1    40          
2001-04-21 22   21.6   109.4    990    1    40          
2001-04-22 01   21.9   109.2    990    1    40          
2001-04-22 04   22.2   108.9    990    1    40          
2001-04-22 07   22.6   108.9    990    1    40          
2001-04-22 10   22.9   109.0    990    1    40          
2001-04-22 13   23.2   109.2    990    1    40          
2001-04-22 16   23.4   109.3    990    1    40          
2001-04-22 19   23.6   109.4    990    1    40          
2001-04-22 22   23.9   109.5    990    1    40          
2001-04-23 01   24.2   109.6    990    1    40          
2001-04-23 04   24.3   110.0    990    1    40          
2001-04-23 07   24.3   110.4    990    1    40          
2001-04-23 10   24.3   111.0    990    1    40          
2001-04-23 13   24.3   111.6    990    1    40          
2001-04-23 16   24.4   112.3    998         35          
2001-04-23 19   24.5   113.1    998         35          
2001-04-23 22   24.7   114.0   1000         35          
2001-04-24 01   24.9   114.9   1002         25          
Winds are 10-min average.

Tropical cyclone tracks developed by Michael Bath using data from the Bureau of Meteorology and Google Maps.


[Australian Severe Weather index] [Copyright Notice] [Email Contacts] [Search This Site] [Privacy Policy]
Document: tropical_cyclone_alistair.htm Updated: 29 June 2017